createdAt,value
2022-09-03T00:03:24.530Z,15.6
2022-09-03T00:08:25.248Z,15.4
2022-09-03T00:13:24.310Z,15.4
2022-09-03T00:18:24.888Z,15.2
2022-09-03T00:23:24.092Z,15.2
2022-09-03T00:28:24.576Z,14.9
2022-09-03T00:33:24.807Z,14.9
2022-09-03T00:38:25.980Z,14.8
2022-09-03T00:43:24.543Z,14.8
2022-09-03T00:48:28.793Z,14.7
2022-09-03T00:53:24.205Z,14.7
2022-09-03T00:58:24.804Z,14.7
2022-09-03T01:03:24.166Z,14.7
2022-09-03T01:08:24.979Z,14.6
2022-09-03T01:13:24.103Z,14.6
2022-09-03T01:18:24.968Z,14.5
2022-09-03T01:23:24.149Z,14.5
2022-09-03T01:28:24.646Z,14.5
2022-09-03T01:33:24.079Z,14.5
2022-09-03T01:38:24.670Z,14.4
2022-09-03T01:43:24.876Z,14.4
2022-09-03T01:48:25.225Z,14.2
2022-09-03T01:53:24.262Z,14.2
2022-09-03T01:58:25.016Z,14.1
2022-09-03T02:03:24.747Z,14.1
2022-09-03T02:08:26.112Z,13.7
2022-09-03T02:13:24.442Z,13.7
2022-09-03T02:18:25.003Z,13.6
2022-09-03T02:23:28.497Z,13.6
2022-09-03T02:28:25.081Z,13.4
2022-09-03T02:33:29.175Z,13.4
2022-09-03T02:38:24.478Z,13.3
2022-09-03T02:43:26.248Z,13.3
2022-09-03T02:48:25.023Z,13.4
2022-09-03T02:53:24.436Z,13.4
2022-09-03T02:58:25.281Z,13.3
2022-09-03T03:03:24.388Z,13.3
2022-09-03T03:08:24.399Z,13.2
2022-09-03T03:13:24.778Z,13.2
2022-09-03T03:18:25.528Z,13.1
2022-09-03T03:23:24.736Z,13.1
2022-09-03T03:28:25.288Z,12.7
2022-09-03T03:33:24.601Z,12.7
2022-09-03T03:38:25.127Z,12.2
2022-09-03T03:43:24.886Z,12.2
2022-09-03T03:48:24.940Z,11.9
2022-09-03T03:53:24.539Z,11.9
2022-09-03T03:58:25.261Z,11.5
2022-09-03T04:03:25.103Z,11.5
2022-09-03T04:08:24.393Z,11.4
2022-09-03T04:13:25.065Z,11.4
2022-09-03T04:18:24.573Z,11.3
2022-09-03T04:23:25.028Z,11.3
2022-09-03T04:28:25.529Z,11.3
2022-09-03T04:33:24.355Z,11.3
2022-09-03T04:38:24.940Z,11.5
2022-09-03T04:43:24.385Z,11.5
2022-09-03T04:48:24.862Z,11.7
2022-09-03T04:53:24.213Z,11.7
2022-09-03T04:58:24.529Z,11.7
2022-09-03T05:03:25.056Z,11.7
2022-09-03T05:08:24.821Z,11.4
2022-09-03T05:13:24.200Z,11.4
2022-09-03T05:18:24.845Z,12.2
2022-09-03T05:23:24.166Z,12.2
2022-09-03T05:28:24.616Z,12.8
2022-09-03T05:33:24.916Z,12.8
2022-09-03T05:38:25.268Z,13.1
2022-09-03T05:43:25.137Z,13.1
2022-09-03T05:48:24.599Z,13.6
2022-09-03T05:53:25.221Z,13.6
2022-09-03T05:58:24.537Z,14
2022-09-03T06:03:25.792Z,14
2022-09-03T06:08:25.012Z,14.5
2022-09-03T06:13:24.764Z,14.5
2022-09-03T06:18:25.409Z,14.8
2022-09-03T06:23:24.667Z,14.8
2022-09-03T06:28:26.938Z,15.1
2022-09-03T06:33:25.385Z,15.1
2022-09-03T06:38:24.806Z,15.4
2022-09-03T06:43:25.123Z,15.4
2022-09-03T06:48:25.479Z,15.8
2022-09-03T06:53:32.295Z,15.8
2022-09-03T06:58:25.079Z,16
2022-09-03T07:03:24.580Z,16
2022-09-03T07:08:25.071Z,16.2
2022-09-03T07:13:24.300Z,16.2
2022-09-03T07:18:24.798Z,16.5
2022-09-03T07:23:25.198Z,16.5
2022-09-03T07:28:24.762Z,16.7
2022-09-03T07:33:24.449Z,16.7
2022-09-03T07:38:24.747Z,17.1
2022-09-03T07:43:24.769Z,17.1
2022-09-03T07:48:25.403Z,17.3
2022-09-03T07:53:24.640Z,17.3
2022-09-03T07:58:24.886Z,17.8
2022-09-03T08:03:25.427Z,17.8
2022-09-03T08:08:31.371Z,18.1
2022-09-03T08:13:27.141Z,18.1
2022-09-03T08:18:25.327Z,18.5
2022-09-03T08:23:24.789Z,18.5
2022-09-03T08:28:25.259Z,18.9
2022-09-03T08:33:25.786Z,18.9
2022-09-03T08:38:25.378Z,19.2
2022-09-03T08:43:24.285Z,19.2
2022-09-03T08:48:26.255Z,19.8
2022-09-03T08:53:24.732Z,19.8
2022-09-03T08:58:25.071Z,20.4
2022-09-03T09:03:24.865Z,20.4
2022-09-03T09:08:25.586Z,21
2022-09-03T09:13:24.807Z,21
2022-09-03T09:18:25.362Z,20.7
2022-09-03T09:23:26.183Z,20.7
2022-09-03T09:28:24.642Z,21.1
2022-09-03T09:33:25.141Z,21.1
2022-09-03T09:38:24.817Z,20.9
2022-09-03T09:43:25.379Z,20.9
2022-09-03T09:48:24.713Z,21.2
2022-09-03T09:53:25.213Z,21.2
2022-09-03T09:58:24.559Z,20.9
2022-09-03T10:03:24.981Z,20.9
2022-09-03T10:08:25.494Z,20.7
2022-09-03T10:13:24.764Z,20.7
2022-09-03T10:18:26.443Z,20.6
2022-09-03T10:23:24.545Z,20.6
2022-09-03T10:28:25.293Z,21.1
2022-09-03T10:33:24.564Z,21.1
2022-09-03T10:38:25.070Z,21.6
2022-09-03T10:43:25.198Z,21.6
2022-09-03T10:48:25.711Z,21.7
2022-09-03T10:53:24.924Z,21.7
2022-09-03T10:58:24.876Z,22.1
2022-09-03T11:03:25.589Z,22.1
2022-09-03T11:08:25.134Z,22.9
2022-09-03T11:13:24.434Z,22.9
2022-09-03T11:18:24.717Z,22.4
2022-09-03T11:23:25.060Z,22.4
2022-09-03T11:28:25.668Z,22.2
2022-09-03T11:33:25.029Z,22.2
2022-09-03T11:38:25.395Z,22.1
2022-09-03T11:43:24.805Z,22.1
2022-09-03T11:48:25.150Z,22.2
2022-09-03T11:53:25.825Z,22.2
2022-09-03T11:58:24.789Z,22.3
2022-09-03T12:03:25.289Z,22.3
2022-09-03T12:08:24.378Z,22.9
2022-09-03T12:13:24.918Z,22.9
2022-09-03T12:18:25.012Z,22.9
2022-09-03T12:23:24.760Z,22.9
2022-09-03T12:28:25.016Z,22.4
2022-09-03T12:33:25.658Z,22.4
2022-09-03T12:38:24.898Z,22.5
2022-09-03T12:43:44.103Z,22.5
2022-09-03T12:48:24.905Z,22.4
2022-09-03T12:53:25.718Z,22.4
2022-09-03T12:58:24.986Z,22.4
2022-09-03T13:03:25.612Z,22.4
2022-09-03T13:08:24.791Z,22.5
2022-09-03T13:13:24.862Z,22.5
2022-09-03T13:18:24.982Z,22.6
2022-09-03T13:23:25.764Z,22.6
2022-09-03T13:28:24.895Z,22.9
2022-09-03T13:33:29.633Z,22.9
2022-09-03T13:38:24.904Z,22.8
2022-09-03T13:43:25.991Z,22.8
2022-09-03T13:48:25.460Z,23.4
2022-09-03T13:53:26.471Z,23.4
2022-09-03T13:58:27.834Z,23.3
2022-09-03T14:03:25.368Z,23.3
2022-09-03T14:08:24.515Z,23.2
2022-09-03T14:13:25.052Z,23.2
2022-09-03T14:18:25.254Z,23
2022-09-03T14:23:25.876Z,23
2022-09-03T14:28:25.056Z,22.9
2022-09-03T14:33:25.836Z,22.9
2022-09-03T14:38:26.178Z,23.3
2022-09-03T14:43:25.541Z,23.3
2022-09-03T14:48:24.560Z,23.5
2022-09-03T14:53:25.231Z,23.5
2022-09-03T14:58:25.460Z,23.3
2022-09-03T15:03:25.587Z,23.3
2022-09-03T15:08:25.262Z,23
2022-09-03T15:13:26.763Z,23
2022-09-03T15:18:25.239Z,22.7
2022-09-03T15:23:25.742Z,22.7
2022-09-03T15:28:25.295Z,22.8
2022-09-03T15:33:25.515Z,22.8
2022-09-03T15:38:25.165Z,22.7
2022-09-03T15:43:25.047Z,22.7
2022-09-03T15:48:24.679Z,22.5
2022-09-03T15:53:25.265Z,22.5
2022-09-03T15:58:24.995Z,22.6
2022-09-03T16:03:26.377Z,22.6
2022-09-03T16:08:25.505Z,22.4
2022-09-03T16:13:25.044Z,22.4
2022-09-03T16:18:25.680Z,22.2
2022-09-03T16:23:24.950Z,22.2
2022-09-03T16:28:25.266Z,22.2
2022-09-03T16:33:25.295Z,22.2
2022-09-03T16:38:24.923Z,21.9
2022-09-03T16:43:41.676Z,21.9
2022-09-03T16:48:24.848Z,21.5
2022-09-03T16:53:25.352Z,21.5
2022-09-03T16:58:25.489Z,21.3
2022-09-03T17:03:26.862Z,21.3
2022-09-03T17:08:25.252Z,21.1
2022-09-03T17:13:25.018Z,21.1
2022-09-03T17:18:25.309Z,21
2022-09-03T17:23:25.977Z,21
2022-09-03T17:28:25.597Z,20.8
2022-09-03T17:33:25.110Z,20.8
2022-09-03T17:38:25.335Z,20.6
2022-09-03T17:43:25.010Z,20.6
2022-09-03T17:48:25.130Z,20.4
2022-09-03T17:53:25.722Z,20.4
2022-09-03T17:58:24.800Z,20.2
2022-09-03T18:03:26.829Z,20.2
2022-09-03T18:08:25.144Z,20
2022-09-03T18:13:26.843Z,20
2022-09-03T18:18:24.913Z,19.7
2022-09-03T18:23:25.517Z,19.7
2022-09-03T18:28:26.363Z,19.4
2022-09-03T18:33:25.962Z,19.4
2022-09-03T18:38:25.267Z,19.2
2022-09-03T18:43:25.991Z,19.2
2022-09-03T18:48:25.526Z,18.9
2022-09-03T18:53:29.948Z,18.9
2022-09-03T18:58:24.986Z,18.7
2022-09-03T19:03:25.409Z,18.7
2022-09-03T19:08:25.627Z,18.3
2022-09-03T19:13:25.655Z,18.3
2022-09-03T19:18:24.939Z,18.2
2022-09-03T19:23:25.386Z,18.2
2022-09-03T19:28:24.861Z,18
2022-09-03T19:33:29.988Z,18
2022-09-03T19:38:25.194Z,17.9
2022-09-03T19:43:25.607Z,17.9
2022-09-03T19:48:27.898Z,17.8
2022-09-03T19:53:25.341Z,17.8
2022-09-03T19:58:44.257Z,17.7
2022-09-03T20:03:24.658Z,17.7
2022-09-03T20:08:29.798Z,17.6
2022-09-03T20:13:24.904Z,17.6
2022-09-03T20:18:25.289Z,17.4
2022-09-03T20:23:25.461Z,17.4
2022-09-03T20:28:25.982Z,17.3
2022-09-03T20:33:26.018Z,17.3
2022-09-03T20:38:25.458Z,17.1
2022-09-03T20:43:25.685Z,17.1
2022-09-03T20:48:25.178Z,16.8
2022-09-03T20:53:28.272Z,16.8
2022-09-03T20:58:25.360Z,16.8
2022-09-03T21:03:25.503Z,16.8
2022-09-03T21:08:25.142Z,16.7
2022-09-03T21:13:25.470Z,16.7
2022-09-03T21:18:25.009Z,16.4
2022-09-03T21:23:25.042Z,16.4
2022-09-03T21:28:25.874Z,16.4
2022-09-03T21:33:25.347Z,16.4
2022-09-03T21:38:26.265Z,16.3
2022-09-03T21:43:28.366Z,16.3
2022-09-03T21:48:25.924Z,16.2
2022-09-03T21:53:25.176Z,16.2
2022-09-03T21:58:25.574Z,16.1
2022-09-03T22:03:24.745Z,16.1
2022-09-03T22:08:25.045Z,16
2022-09-03T22:13:25.448Z,16
2022-09-03T22:18:29.695Z,15.9
2022-09-03T22:23:25.043Z,15.9
2022-09-03T22:28:25.310Z,15.8
2022-09-03T22:33:25.556Z,15.8
2022-09-03T22:38:25.920Z,15.8
2022-09-03T22:43:25.228Z,15.8
2022-09-03T22:48:25.129Z,15.7
2022-09-03T22:53:25.741Z,15.7
2022-09-03T22:58:28.954Z,15.6
2022-09-03T23:03:24.934Z,15.6
2022-09-03T23:08:25.284Z,15.5
2022-09-03T23:13:25.636Z,15.5
2022-09-03T23:18:25.058Z,15.4
2022-09-03T23:23:25.167Z,15.4
2022-09-03T23:28:25.724Z,15.3
2022-09-03T23:33:24.875Z,15.3
2022-09-03T23:38:25.755Z,15.2
2022-09-03T23:43:24.761Z,15.2
2022-09-03T23:48:25.215Z,15.2
2022-09-03T23:53:25.524Z,15.2
2022-09-03T23:58:25.812Z,15.1
